sensor_id;sensor_type;location;lat;lon;timestamp;pressure;altitude;pressure_sealevel;temperature;humidity
21361;BME280;10839;43.206;23.550;2024-01-30T00:01:57;99441.59;;;1.59;81.73
21361;BME280;10839;43.206;23.550;2024-01-30T00:04:22;99430.25;;;1.40;82.68
21361;BME280;10839;43.206;23.550;2024-01-30T00:06:48;99439.63;;;1.30;85.24
21361;BME280;10839;43.206;23.550;2024-01-30T00:09:13;99424.47;;;1.49;84.97
21361;BME280;10839;43.206;23.550;2024-01-30T00:11:39;99429.59;;;1.52;83.21
21361;BME280;10839;43.206;23.550;2024-01-30T00:14:05;99446.91;;;1.59;82.70
21361;BME280;10839;43.206;23.550;2024-01-30T00:16:31;99449.66;;;1.73;81.74
21361;BME280;10839;43.206;23.550;2024-01-30T00:18:56;99435.78;;;1.68;82.91
21361;BME280;10839;43.206;23.550;2024-01-30T00:21:22;99443.47;;;1.57;83.43
21361;BME280;10839;43.206;23.550;2024-01-30T00:23:48;99445.56;;;1.68;82.46
21361;BME280;10839;43.206;23.550;2024-01-30T00:26:13;99449.25;;;1.48;83.03
21361;BME280;10839;43.206;23.550;2024-01-30T00:28:43;99451.56;;;1.71;82.70
21361;BME280;10839;43.206;23.550;2024-01-30T00:31:09;99434.56;;;1.58;83.34
21361;BME280;10839;43.206;23.550;2024-01-30T00:33:41;99455.53;;;1.47;84.13
21361;BME280;10839;43.206;23.550;2024-01-30T00:36:08;99446.16;;;1.40;84.77
21361;BME280;10839;43.206;23.550;2024-01-30T00:38:33;99443.72;;;1.53;84.47
21361;BME280;10839;43.206;23.550;2024-01-30T00:40:59;99446.81;;;1.61;83.62
21361;BME280;10839;43.206;23.550;2024-01-30T00:43:25;99422.91;;;1.29;86.28
21361;BME280;10839;43.206;23.550;2024-01-30T00:45:51;99441.91;;;1.53;85.93
21361;BME280;10839;43.206;23.550;2024-01-30T00:48:18;99443.31;;;1.60;85.32
21361;BME280;10839;43.206;23.550;2024-01-30T00:50:43;99416.56;;;1.32;85.73
21361;BME280;10839;43.206;23.550;2024-01-30T00:53:09;99445.53;;;1.52;86.13
21361;BME280;10839;43.206;23.550;2024-01-30T00:55:35;99442.69;;;1.40;86.54
21361;BME280;10839;43.206;23.550;2024-01-30T00:58:00;99450.16;;;1.64;85.65
21361;BME280;10839;43.206;23.550;2024-01-30T01:00:26;99449.22;;;1.65;85.80
21361;BME280;10839;43.206;23.550;2024-01-30T01:03:00;99444.25;;;1.59;86.58
21361;BME280;10839;43.206;23.550;2024-01-30T01:05:26;99452.75;;;1.81;86.13
21361;BME280;10839;43.206;23.550;2024-01-30T01:07:51;99451.63;;;1.85;85.63
21361;BME280;10839;43.206;23.550;2024-01-30T01:10:17;99440.28;;;1.51;87.38
21361;BME280;10839;43.206;23.550;2024-01-30T01:12:43;99453.22;;;1.57;89.12
21361;BME280;10839;43.206;23.550;2024-01-30T01:15:09;99452.25;;;1.90;87.72
21361;BME280;10839;43.206;23.550;2024-01-30T01:17:36;99459.09;;;1.79;87.55
21361;BME280;10839;43.206;23.550;2024-01-30T01:20:03;99427.94;;;1.34;90.04
21361;BME280;10839;43.206;23.550;2024-01-30T01:22:29;99435.50;;;1.57;88.82
21361;BME280;10839;43.206;23.550;2024-01-30T01:24:54;99443.88;;;1.98;87.06
21361;BME280;10839;43.206;23.550;2024-01-30T01:27:20;99447.09;;;1.56;87.14
21361;BME280;10839;43.206;23.550;2024-01-30T01:29:46;99445.00;;;1.46;88.65
21361;BME280;10839;43.206;23.550;2024-01-30T01:32:11;99436.94;;;1.47;87.42
21361;BME280;10839;43.206;23.550;2024-01-30T01:34:37;99434.38;;;1.46;87.60
21361;BME280;10839;43.206;23.550;2024-01-30T01:37:02;99422.44;;;1.54;87.26
21361;BME280;10839;43.206;23.550;2024-01-30T01:39:28;99433.38;;;1.64;87.29
21361;BME280;10839;43.206;23.550;2024-01-30T01:41:53;99428.25;;;1.61;87.29
21361;BME280;10839;43.206;23.550;2024-01-30T01:44:19;99419.97;;;1.82;85.49
21361;BME280;10839;43.206;23.550;2024-01-30T01:46:44;99442.53;;;1.58;87.07
21361;BME280;10839;43.206;23.550;2024-01-30T01:49:10;99426.69;;;1.57;87.60
21361;BME280;10839;43.206;23.550;2024-01-30T01:51:36;99432.78;;;1.90;85.82
21361;BME280;10839;43.206;23.550;2024-01-30T01:54:05;99438.59;;;1.65;86.53
21361;BME280;10839;43.206;23.550;2024-01-30T01:56:33;99430.13;;;1.59;87.24
21361;BME280;10839;43.206;23.550;2024-01-30T01:59:06;99431.81;;;1.44;87.85
21361;BME280;10839;43.206;23.550;2024-01-30T02:01:38;99421.41;;;1.72;86.09
21361;BME280;10839;43.206;23.550;2024-01-30T02:04:07;99436.59;;;1.53;87.60
21361;BME280;10839;43.206;23.550;2024-01-30T02:06:34;99431.81;;;1.44;88.76
21361;BME280;10839;43.206;23.550;2024-01-30T02:09:00;99437.34;;;1.72;86.89
21361;BME280;10839;43.206;23.550;2024-01-30T02:11:25;99436.47;;;1.56;87.48
21361;BME280;10839;43.206;23.550;2024-01-30T02:13:52;99430.09;;;1.43;88.43
21361;BME280;10839;43.206;23.550;2024-01-30T02:16:17;99429.59;;;1.52;88.21
21361;BME280;10839;43.206;23.550;2024-01-30T02:18:43;99443.00;;;1.97;85.73
21361;BME280;10839;43.206;23.550;2024-01-30T02:21:13;99430.31;;;1.71;86.25
21361;BME280;10839;43.206;23.550;2024-01-30T02:23:39;99433.72;;;1.58;87.72
21361;BME280;10839;43.206;23.550;2024-01-30T02:26:06;99442.66;;;1.72;87.25
21361;BME280;10839;43.206;23.550;2024-01-30T02:28:31;99442.28;;;1.78;85.86
21361;BME280;10839;43.206;23.550;2024-01-30T02:30:57;99432.09;;;1.55;86.77
21361;BME280;10839;43.206;23.550;2024-01-30T02:33:22;99431.84;;;1.75;86.90
21361;BME280;10839;43.206;23.550;2024-01-30T02:35:48;99415.09;;;1.90;84.66
21361;BME280;10839;43.206;23.550;2024-01-30T02:38:15;99425.34;;;1.65;86.02
21361;BME280;10839;43.206;23.550;2024-01-30T02:40:41;99425.50;;;1.62;86.02
21361;BME280;10839;43.206;23.550;2024-01-30T02:43:06;99416.59;;;1.63;86.82
21361;BME280;10839;43.206;23.550;2024-01-30T02:45:32;99422.47;;;2.01;85.78
21361;BME280;10839;43.206;23.550;2024-01-30T02:47:57;99416.28;;;1.85;85.09
21361;BME280;10839;43.206;23.550;2024-01-30T02:50:23;99420.81;;;1.67;85.81
21361;BME280;10839;43.206;23.550;2024-01-30T02:52:48;99409.59;;;1.62;86.35
21361;BME280;10839;43.206;23.550;2024-01-30T02:55:14;99428.66;;;1.53;86.10
21361;BME280;10839;43.206;23.550;2024-01-30T02:57:42;99426.47;;;1.61;86.03
21361;BME280;10839;43.206;23.550;2024-01-30T03:00:08;99429.03;;;1.78;85.70
21361;BME280;10839;43.206;23.550;2024-01-30T03:02:35;99419.53;;;1.74;84.10
21361;BME280;10839;43.206;23.550;2024-01-30T03:05:00;99434.03;;;1.52;85.60
21361;BME280;10839;43.206;23.550;2024-01-30T03:07:26;99430.81;;;1.62;85.73
21361;BME280;10839;43.206;23.550;2024-01-30T03:09:52;99419.81;;;1.70;84.46
21361;BME280;10839;43.206;23.550;2024-01-30T03:12:17;99418.59;;;1.75;83.67
21361;BME280;10839;43.206;23.550;2024-01-30T03:14:43;99435.56;;;1.40;84.86
21361;BME280;10839;43.206;23.550;2024-01-30T03:17:08;99435.16;;;1.63;84.23
21361;BME280;10839;43.206;23.550;2024-01-30T03:19:34;99428.34;;;1.59;84.02
21361;BME280;10839;43.206;23.550;2024-01-30T03:21:59;99434.25;;;1.80;83.18
21361;BME280;10839;43.206;23.550;2024-01-30T03:24:25;99424.41;;;1.66;83.80
21361;BME280;10839;43.206;23.550;2024-01-30T03:26:51;99423.19;;;1.56;84.88
21361;BME280;10839;43.206;23.550;2024-01-30T03:29:16;99421.56;;;1.54;85.30
21361;BME280;10839;43.206;23.550;2024-01-30T03:31:42;99423.13;;;1.73;83.82
21361;BME280;10839;43.206;23.550;2024-01-30T03:34:07;99411.75;;;1.71;84.25
21361;BME280;10839;43.206;23.550;2024-01-30T03:36:33;99406.50;;;1.54;84.59
21361;BME280;10839;43.206;23.550;2024-01-30T03:39:00;99420.47;;;1.73;85.37
21361;BME280;10839;43.206;23.550;2024-01-30T03:41:26;99403.63;;;1.74;84.08
21361;BME280;10839;43.206;23.550;2024-01-30T03:43:51;99416.78;;;1.45;86.22
21361;BME280;10839;43.206;23.550;2024-01-30T03:46:17;99403.41;;;1.46;86.32
21361;BME280;10839;43.206;23.550;2024-01-30T03:48:43;99391.63;;;1.67;85.65
21361;BME280;10839;43.206;23.550;2024-01-30T03:51:09;99407.47;;;1.69;85.29
21361;BME280;10839;43.206;23.550;2024-01-30T03:53:40;99402.38;;;1.33;87.40
21361;BME280;10839;43.206;23.550;2024-01-30T03:56:06;99383.53;;;1.22;88.00
21361;BME280;10839;43.206;23.550;2024-01-30T03:58:31;99408.50;;;1.33;88.31
21361;BME280;10839;43.206;23.550;2024-01-30T04:00:57;99402.16;;;1.20;89.06
21361;BME280;10839;43.206;23.550;2024-01-30T04:03:22;99399.94;;;1.13;89.80
21361;BME280;10839;43.206;23.550;2024-01-30T04:05:48;99397.38;;;1.27;90.06
21361;BME280;10839;43.206;23.550;2024-01-30T04:08:13;99402.31;;;1.17;89.77
21361;BME280;10839;43.206;23.550;2024-01-30T04:10:39;99388.63;;;1.09;90.45
21361;BME280;10839;43.206;23.550;2024-01-30T04:13:05;99415.34;;;1.22;90.58
21361;BME280;10839;43.206;23.550;2024-01-30T04:15:30;99399.66;;;0.85;92.46
21361;BME280;10839;43.206;23.550;2024-01-30T04:17:59;99392.19;;;0.93;93.85
21361;BME280;10839;43.206;23.550;2024-01-30T04:20:24;99421.44;;;1.07;91.62
21361;BME280;10839;43.206;23.550;2024-01-30T04:22:50;99417.44;;;0.83;94.00
21361;BME280;10839;43.206;23.550;2024-01-30T04:25:16;99417.59;;;0.80;94.88
21361;BME280;10839;43.206;23.550;2024-01-30T04:27:41;99412.75;;;0.88;94.95
21361;BME280;10839;43.206;23.550;2024-01-30T04:30:07;99406.50;;;0.89;93.40
21361;BME280;10839;43.206;23.550;2024-01-30T04:32:33;99423.81;;;0.96;94.23
21361;BME280;10839;43.206;23.550;2024-01-30T04:34:58;99428.03;;;0.83;95.53
21361;BME280;10839;43.206;23.550;2024-01-30T04:37:24;99406.19;;;0.95;94.63
21361;BME280;10839;43.206;23.550;2024-01-30T04:39:51;99417.88;;;0.74;95.42
21361;BME280;10839;43.206;23.550;2024-01-30T04:42:17;99406.66;;;0.52;96.50
21361;BME280;10839;43.206;23.550;2024-01-30T04:44:42;99415.09;;;0.60;96.41
21361;BME280;10839;43.206;23.550;2024-01-30T04:47:08;99421.31;;;0.76;96.37
21361;BME280;10839;43.206;23.550;2024-01-30T04:49:36;99419.53;;;0.59;96.46
21361;BME280;10839;43.206;23.550;2024-01-30T04:52:01;99422.31;;;0.73;96.25
21361;BME280;10839;43.206;23.550;2024-01-30T04:54:27;99429.72;;;0.84;95.69
21361;BME280;10839;43.206;23.550;2024-01-30T04:56:52;99428.94;;;0.99;94.81
21361;BME280;10839;43.206;23.550;2024-01-30T04:59:18;99434.41;;;0.96;94.34
21361;BME280;10839;43.206;23.550;2024-01-30T05:01:43;99423.91;;;0.77;95.14
21361;BME280;10839;43.206;23.550;2024-01-30T05:04:09;99427.53;;;0.92;94.93
21361;BME280;10839;43.206;23.550;2024-01-30T05:06:34;99438.31;;;0.89;95.27
21361;BME280;10839;43.206;23.550;2024-01-30T05:09:00;99424.72;;;0.95;95.08
21361;BME280;10839;43.206;23.550;2024-01-30T05:11:25;99437.69;;;1.01;95.01
21361;BME280;10839;43.206;23.550;2024-01-30T05:13:51;99435.66;;;0.89;95.63
21361;BME280;10839;43.206;23.550;2024-01-30T05:16:16;99433.91;;;1.05;95.86
21361;BME280;10839;43.206;23.550;2024-01-30T05:18:42;99439.34;;;1.36;93.11
21361;BME280;10839;43.206;23.550;2024-01-30T05:21:07;99434.06;;;1.02;94.36
21361;BME280;10839;43.206;23.550;2024-01-30T05:23:32;99420.88;;;0.85;95.86
21361;BME280;10839;43.206;23.550;2024-01-30T05:25:58;99421.63;;;0.87;96.02
21361;BME280;10839;43.206;23.550;2024-01-30T05:28:26;99439.38;;;1.19;94.27
21361;BME280;10839;43.206;23.550;2024-01-30T05:30:52;99425.81;;;1.08;93.66
21361;BME280;10839;43.206;23.550;2024-01-30T05:33:17;99431.25;;;1.05;94.64
21361;BME280;10839;43.206;23.550;2024-01-30T05:35:43;99430.50;;;0.86;96.21
21361;BME280;10839;43.206;23.550;2024-01-30T05:38:09;99410.09;;;0.88;96.10
21361;BME280;10839;43.206;23.550;2024-01-30T05:40:34;99427.97;;;1.17;94.25
21361;BME280;10839;43.206;23.550;2024-01-30T05:43:00;99416.78;;;0.95;94.93
21361;BME280;10839;43.206;23.550;2024-01-30T05:45:27;99438.63;;;0.83;97.65
21361;BME280;10839;43.206;23.550;2024-01-30T05:47:53;99432.03;;;1.07;95.96
21361;BME280;10839;43.206;23.550;2024-01-30T05:50:19;99436.28;;;0.77;97.99
21361;BME280;10839;43.206;23.550;2024-01-30T05:52:45;99433.50;;;0.80;98.56
21361;BME280;10839;43.206;23.550;2024-01-30T05:55:12;99438.91;;;0.77;99.08
21361;BME280;10839;43.206;23.550;2024-01-30T05:57:38;99428.00;;;0.49;99.74
21361;BME280;10839;43.206;23.550;2024-01-30T06:00:04;99430.28;;;0.56;100.00
21361;BME280;10839;43.206;23.550;2024-01-30T06:02:32;99434.72;;;0.56;100.00
21361;BME280;10839;43.206;23.550;2024-01-30T06:04:58;99428.34;;;0.60;100.00
21361;BME280;10839;43.206;23.550;2024-01-30T06:07:23;99432.69;;;0.95;98.25
21361;BME280;10839;43.206;23.550;2024-01-30T06:09:49;99445.63;;;0.84;99.26
21361;BME280;10839;43.206;23.550;2024-01-30T06:12:15;99433.16;;;0.86;98.96
21361;BME280;10839;43.206;23.550;2024-01-30T06:14:40;99438.59;;;1.00;98.54
21361;BME280;10839;43.206;23.550;2024-01-30T06:17:08;99431.22;;;1.06;97.31
21361;BME280;10839;43.206;23.550;2024-01-30T06:19:33;99443.22;;;0.96;98.00
21361;BME280;10839;43.206;23.550;2024-01-30T06:21:59;99438.47;;;0.86;98.95
21361;BME280;10839;43.206;23.550;2024-01-30T06:24:24;99447.38;;;0.85;100.00
21361;BME280;10839;43.206;23.550;2024-01-30T06:26:50;99444.50;;;1.05;98.60
21361;BME280;10839;43.206;23.550;2024-01-30T06:29:15;99433.28;;;1.00;98.20
21361;BME280;10839;43.206;23.550;2024-01-30T06:31:42;99440.94;;;0.72;100.00
21361;BME280;10839;43.206;23.550;2024-01-30T06:34:09;99442.66;;;0.90;99.74
21361;BME280;10839;43.206;23.550;2024-01-30T06:36:35;99445.78;;;0.98;99.54
21361;BME280;10839;43.206;23.550;2024-01-30T06:39:02;99444.31;;;0.92;99.13
21361;BME280;10839;43.206;23.550;2024-01-30T06:41:27;99455.78;;;0.93;99.31
21361;BME280;10839;43.206;23.550;2024-01-30T06:43:53;99449.69;;;0.74;100.00
21361;BME280;10839;43.206;23.550;2024-01-30T06:46:18;99460.75;;;0.99;100.00
21361;BME280;10839;43.206;23.550;2024-01-30T06:48:44;99443.53;;;0.73;100.00
21361;BME280;10839;43.206;23.550;2024-01-30T06:51:11;99459.81;;;0.83;100.00
21361;BME280;10839;43.206;23.550;2024-01-30T06:53:37;99460.00;;;0.80;100.00
21361;BME280;10839;43.206;23.550;2024-01-30T06:56:03;99461.81;;;1.12;100.00
21361;BME280;10839;43.206;23.550;2024-01-30T06:58:29;99470.34;;;1.01;99.91
21361;BME280;10839;43.206;23.550;2024-01-30T07:00:56;99477.88;;;1.09;99.33
21361;BME280;10839;43.206;23.550;2024-01-30T07:03:21;99463.22;;;1.19;99.08
21361;BME280;10839;43.206;23.550;2024-01-30T07:05:47;99468.53;;;1.19;98.36
21361;BME280;10839;43.206;23.550;2024-01-30T07:08:13;99475.69;;;1.17;98.53
21361;BME280;10839;43.206;23.550;2024-01-30T07:10:38;99476.81;;;0.96;99.94
21361;BME280;10839;43.206;23.550;2024-01-30T07:13:04;99478.19;;;1.20;99.90
21361;BME280;10839;43.206;23.550;2024-01-30T07:15:31;99489.09;;;1.31;98.77
21361;BME280;10839;43.206;23.550;2024-01-30T07:17:56;99478.38;;;1.50;96.74
21361;BME280;10839;43.206;23.550;2024-01-30T07:20:22;99476.03;;;1.44;97.16
21361;BME280;10839;43.206;23.550;2024-01-30T07:22:48;99472.84;;;1.37;98.22
21361;BME280;10839;43.206;23.550;2024-01-30T07:25:14;99477.25;;;1.21;98.89
21361;BME280;10839;43.206;23.550;2024-01-30T07:27:40;99480.03;;;1.35;97.37
21361;BME280;10839;43.206;23.550;2024-01-30T07:30:06;99474.63;;;1.37;96.94
21361;BME280;10839;43.206;23.550;2024-01-30T07:32:32;99491.19;;;1.74;96.89
21361;BME280;10839;43.206;23.550;2024-01-30T07:34:57;99483.00;;;1.46;96.25
21361;BME280;10839;43.206;23.550;2024-01-30T07:37:23;99480.00;;;1.52;95.34
21361;BME280;10839;43.206;23.550;2024-01-30T07:39:48;99481.69;;;1.20;96.69
21361;BME280;10839;43.206;23.550;2024-01-30T07:42:14;99475.97;;;1.45;97.74
21361;BME280;10839;43.206;23.550;2024-01-30T07:44:39;99474.50;;;2.03;94.44
21361;BME280;10839;43.206;23.550;2024-01-30T07:47:05;99473.47;;;1.90;92.64
21361;BME280;10839;43.206;23.550;2024-01-30T07:49:31;99467.97;;;1.62;94.52
21361;BME280;10839;43.206;23.550;2024-01-30T07:51:59;99476.19;;;1.73;94.35
21361;BME280;10839;43.206;23.550;2024-01-30T07:54:25;99487.97;;;2.00;91.19
21361;BME280;10839;43.206;23.550;2024-01-30T07:56:50;99486.34;;;2.13;91.12
21361;BME280;10839;43.206;23.550;2024-01-30T07:59:16;99481.41;;;1.75;90.94
21361;BME280;10839;43.206;23.550;2024-01-30T08:01:41;99475.88;;;1.79;92.45
21361;BME280;10839;43.206;23.550;2024-01-30T08:04:07;99489.09;;;1.96;90.77
21361;BME280;10839;43.206;23.550;2024-01-30T08:06:32;99479.59;;;2.08;91.51
21361;BME280;10839;43.206;23.550;2024-01-30T08:08:58;99481.34;;;2.38;90.29
21361;BME280;10839;43.206;23.550;2024-01-30T08:11:24;99483.78;;;1.96;91.53
21361;BME280;10839;43.206;23.550;2024-01-30T08:13:52;99487.16;;;1.67;92.32
21361;BME280;10839;43.206;23.550;2024-01-30T08:16:18;99477.75;;;1.77;92.28
21361;BME280;10839;43.206;23.550;2024-01-30T08:18:43;99484.09;;;1.90;92.95
21361;BME280;10839;43.206;23.550;2024-01-30T08:21:09;99485.84;;;2.22;89.87
21361;BME280;10839;43.206;23.550;2024-01-30T08:23:35;99497.91;;;2.89;84.97
21361;BME280;10839;43.206;23.550;2024-01-30T08:26:00;99487.47;;;2.86;82.62
21361;BME280;10839;43.206;23.550;2024-01-30T08:28:26;99490.13;;;2.86;80.42
21361;BME280;10839;43.206;23.550;2024-01-30T08:30:52;99486.47;;;2.73;81.36
21361;BME280;10839;43.206;23.550;2024-01-30T08:33:17;99487.34;;;2.42;79.88
21361;BME280;10839;43.206;23.550;2024-01-30T08:35:43;99482.63;;;2.47;77.94
21361;BME280;10839;43.206;23.550;2024-01-30T08:38:09;99483.03;;;2.71;78.17
21361;BME280;10839;43.206;23.550;2024-01-30T08:40:34;99489.56;;;3.38;76.08
21361;BME280;10839;43.206;23.550;2024-01-30T08:43:00;99489.88;;;3.34;75.02
21361;BME280;10839;43.206;23.550;2024-01-30T08:45:25;99492.84;;;3.14;75.77
21361;BME280;10839;43.206;23.550;2024-01-30T08:47:51;99492.28;;;2.79;76.04
21361;BME280;10839;43.206;23.550;2024-01-30T08:50:16;99488.97;;;2.90;76.75
21361;BME280;10839;43.206;23.550;2024-01-30T08:52:42;99485.38;;;2.91;75.47
21361;BME280;10839;43.206;23.550;2024-01-30T08:55:08;99494.84;;;3.54;72.64
21361;BME280;10839;43.206;23.550;2024-01-30T08:57:33;99505.00;;;3.18;72.20
21361;BME280;10839;43.206;23.550;2024-01-30T08:59:59;99498.03;;;3.45;69.70
21361;BME280;10839;43.206;23.550;2024-01-30T09:02:24;99500.44;;;3.06;67.72
21361;BME280;10839;43.206;23.550;2024-01-30T09:04:50;99498.47;;;3.23;66.31
21361;BME280;10839;43.206;23.550;2024-01-30T09:07:15;99501.28;;;3.50;65.31
21361;BME280;10839;43.206;23.550;2024-01-30T09:09:41;99504.53;;;3.55;63.52
21361;BME280;10839;43.206;23.550;2024-01-30T09:12:07;99495.59;;;4.12;61.76
21361;BME280;10839;43.206;23.550;2024-01-30T09:14:35;99508.41;;;4.20;61.77
21361;BME280;10839;43.206;23.550;2024-01-30T09:17:01;99507.88;;;4.01;58.51
21361;BME280;10839;43.206;23.550;2024-01-30T09:19:28;99497.78;;;3.63;59.82
21361;BME280;10839;43.206;23.550;2024-01-30T09:21:54;99497.31;;;3.57;59.48
21361;BME280;10839;43.206;23.550;2024-01-30T09:24:19;99503.00;;;3.51;59.25
21361;BME280;10839;43.206;23.550;2024-01-30T09:26:45;99509.66;;;3.58;59.63
21361;BME280;10839;43.206;23.550;2024-01-30T09:29:10;99498.63;;;3.36;58.15
21361;BME280;10839;43.206;23.550;2024-01-30T09:31:36;99497.06;;;3.32;59.41
21361;BME280;10839;43.206;23.550;2024-01-30T09:34:01;99494.25;;;3.91;57.67
21361;BME280;10839;43.206;23.550;2024-01-30T09:36:27;99497.00;;;4.44;57.53
21361;BME280;10839;43.206;23.550;2024-01-30T09:38:53;99483.88;;;4.55;55.22
21361;BME280;10839;43.206;23.550;2024-01-30T09:41:19;99464.63;;;3.69;53.41
21361;BME280;10839;43.206;23.550;2024-01-30T09:43:48;99486.84;;;3.82;55.25
21361;BME280;10839;43.206;23.550;2024-01-30T09:46:17;99490.81;;;4.03;54.52
21361;BME280;10839;43.206;23.550;2024-01-30T09:48:46;99487.53;;;4.40;53.89
21361;BME280;10839;43.206;23.550;2024-01-30T09:51:13;99470.63;;;4.13;54.69
21361;BME280;10839;43.206;23.550;2024-01-30T09:53:40;99487.28;;;4.57;52.22
21361;BME280;10839;43.206;23.550;2024-01-30T09:56:05;99480.22;;;4.56;51.75
21361;BME280;10839;43.206;23.550;2024-01-30T09:58:31;99480.31;;;4.28;52.41
21361;BME280;10839;43.206;23.550;2024-01-30T10:00:57;99477.91;;;4.64;52.49
21361;BME280;10839;43.206;23.550;2024-01-30T10:03:22;99473.59;;;4.49;52.37
21361;BME280;10839;43.206;23.550;2024-01-30T10:05:51;99464.31;;;4.28;52.92
21361;BME280;10839;43.206;23.550;2024-01-30T10:08:20;99475.63;;;3.77;53.86
21361;BME280;10839;43.206;23.550;2024-01-30T10:10:47;99477.34;;;4.33;53.59
21361;BME280;10839;43.206;23.550;2024-01-30T10:13:13;99473.38;;;3.71;53.28
21361;BME280;10839;43.206;23.550;2024-01-30T10:15:38;99467.41;;;4.22;52.55
21361;BME280;10839;43.206;23.550;2024-01-30T10:18:06;99453.06;;;4.90;51.66
21361;BME280;10839;43.206;23.550;2024-01-30T10:20:32;99464.91;;;4.60;51.79
21361;BME280;10839;43.206;23.550;2024-01-30T10:22:58;99457.78;;;4.46;51.59
21361;BME280;10839;43.206;23.550;2024-01-30T10:25:23;99456.06;;;4.98;50.09
21361;BME280;10839;43.206;23.550;2024-01-30T10:27:55;99452.69;;;5.21;49.97
21361;BME280;10839;43.206;23.550;2024-01-30T10:30:24;99463.06;;;4.87;50.53
21361;BME280;10839;43.206;23.550;2024-01-30T10:32:50;99453.88;;;4.78;50.94
21361;BME280;10839;43.206;23.550;2024-01-30T10:35:17;99457.78;;;5.24;49.53
21361;BME280;10839;43.206;23.550;2024-01-30T10:37:49;99456.53;;;5.43;49.42
21361;BME280;10839;43.206;23.550;2024-01-30T10:40:14;99453.13;;;5.41;48.47
21361;BME280;10839;43.206;23.550;2024-01-30T10:42:44;99452.03;;;5.56;48.85
21361;BME280;10839;43.206;23.550;2024-01-30T10:45:12;99442.97;;;6.32;47.18
21361;BME280;10839;43.206;23.550;2024-01-30T10:47:49;99438.75;;;6.64;46.35
21361;BME280;10839;43.206;23.550;2024-01-30T10:50:15;99433.00;;;5.22;49.30
21361;BME280;10839;43.206;23.550;2024-01-30T10:52:41;99448.22;;;5.85;49.20
21361;BME280;10839;43.206;23.550;2024-01-30T10:55:10;99422.16;;;5.26;50.49
21361;BME280;10839;43.206;23.550;2024-01-30T10:57:37;99429.81;;;5.93;48.02
21361;BME280;10839;43.206;23.550;2024-01-30T11:00:05;99424.47;;;5.68;48.61
21361;BME280;10839;43.206;23.550;2024-01-30T11:02:45;99416.78;;;5.88;48.29
21361;BME280;10839;43.206;23.550;2024-01-30T11:05:11;99425.81;;;6.11;48.27
21361;BME280;10839;43.206;23.550;2024-01-30T11:07:39;99429.75;;;4.80;50.54
21361;BME280;10839;43.206;23.550;2024-01-30T11:10:05;99429.41;;;5.23;49.83
21361;BME280;10839;43.206;23.550;2024-01-30T11:12:33;99410.78;;;4.84;50.47
21361;BME280;10839;43.206;23.550;2024-01-30T11:15:03;99428.53;;;5.23;50.23
21361;BME280;10839;43.206;23.550;2024-01-30T11:17:40;99417.34;;;4.66;51.44
21361;BME280;10839;43.206;23.550;2024-01-30T11:20:10;99404.16;;;5.78;50.25
21361;BME280;10839;43.206;23.550;2024-01-30T11:22:35;99405.06;;;6.85;47.70
21361;BME280;10839;43.206;23.550;2024-01-30T11:25:01;99409.25;;;7.00;46.02
21361;BME280;10839;43.206;23.550;2024-01-30T11:27:30;99404.34;;;4.74;50.27
21361;BME280;10839;43.206;23.550;2024-01-30T11:30:01;99390.13;;;4.61;52.07
21361;BME280;10839;43.206;23.550;2024-01-30T11:32:27;99402.06;;;5.07;51.64
21361;BME280;10839;43.206;23.550;2024-01-30T11:34:54;99400.75;;;5.76;49.62
21361;BME280;10839;43.206;23.550;2024-01-30T11:37:21;99396.91;;;5.80;49.31
21361;BME280;10839;43.206;23.550;2024-01-30T11:39:48;99381.56;;;4.95;50.66
21361;BME280;10839;43.206;23.550;2024-01-30T11:42:13;99386.59;;;4.48;52.59
21361;BME280;10839;43.206;23.550;2024-01-30T11:44:40;99391.19;;;5.10;51.83
21361;BME280;10839;43.206;23.550;2024-01-30T11:47:05;99385.22;;;5.07;51.04
21361;BME280;10839;43.206;23.550;2024-01-30T11:49:31;99378.78;;;5.09;50.95
21361;BME280;10839;43.206;23.550;2024-01-30T11:51:56;99382.19;;;5.49;50.29
21361;BME280;10839;43.206;23.550;2024-01-30T11:54:22;99383.94;;;5.25;49.54
21361;BME280;10839;43.206;23.550;2024-01-30T11:56:48;99375.38;;;5.07;49.91
21361;BME280;10839;43.206;23.550;2024-01-30T11:59:13;99364.81;;;3.88;53.51
21361;BME280;10839;43.206;23.550;2024-01-30T12:01:39;99378.31;;;4.65;52.38
21361;BME280;10839;43.206;23.550;2024-01-30T12:04:07;99379.25;;;4.64;52.52
21361;BME280;10839;43.206;23.550;2024-01-30T12:06:34;99363.91;;;4.55;52.73
21361;BME280;10839;43.206;23.550;2024-01-30T12:09:01;99374.69;;;4.27;54.42
21361;BME280;10839;43.206;23.550;2024-01-30T12:11:29;99373.53;;;4.31;53.71
21361;BME280;10839;43.206;23.550;2024-01-30T12:13:55;99367.16;;;4.46;53.79
21361;BME280;10839;43.206;23.550;2024-01-30T12:16:21;99371.91;;;4.55;53.42
21361;BME280;10839;43.206;23.550;2024-01-30T12:18:47;99348.25;;;4.63;52.66
21361;BME280;10839;43.206;23.550;2024-01-30T12:21:16;99340.78;;;4.68;53.20
21361;BME280;10839;43.206;23.550;2024-01-30T12:23:42;99345.28;;;4.80;53.01
21361;BME280;10839;43.206;23.550;2024-01-30T12:26:08;99354.88;;;4.70;51.92
21361;BME280;10839;43.206;23.550;2024-01-30T12:28:33;99349.00;;;4.78;51.96
21361;BME280;10839;43.206;23.550;2024-01-30T12:31:03;99353.19;;;5.19;51.50
21361;BME280;10839;43.206;23.550;2024-01-30T12:33:29;99342.72;;;4.91;51.18
21361;BME280;10839;43.206;23.550;2024-01-30T12:35:56;99353.75;;;5.61;49.64
21361;BME280;10839;43.206;23.550;2024-01-30T12:38:22;99348.50;;;4.85;51.06
21361;BME280;10839;43.206;23.550;2024-01-30T12:40:49;99346.53;;;4.62;51.63
21361;BME280;10839;43.206;23.550;2024-01-30T12:43:15;99342.25;;;4.47;52.77
21361;BME280;10839;43.206;23.550;2024-01-30T12:45:41;99343.31;;;4.18;53.57
21361;BME280;10839;43.206;23.550;2024-01-30T12:48:08;99342.56;;;4.16;53.32
21361;BME280;10839;43.206;23.550;2024-01-30T12:50:34;99340.34;;;3.96;54.99
21361;BME280;10839;43.206;23.550;2024-01-30T12:52:59;99336.28;;;3.64;55.58
21361;BME280;10839;43.206;23.550;2024-01-30T12:55:25;99339.69;;;3.66;55.15